Manitowoc, WI (54220)

4:51 PM CST on January 29, 2015 (GMT -0600)
Western Shore of Lake Michigan | Change Station
CLOSE
Current Station
Personal Weather Station
Location: Manitowoc, WI
Elevation: 639 ft
Nearby Weather Stations

Elev 639 ft 44.11 °N, 87.67 °W | Updated 0 second ago

Overcast
Overcast
33.5 °F
Feels Like 30 °F
N
3.5
Wind Variable Wind from NNE
Gusts 11.4 mph

Today
High -- | Low -- °F
--% Chance of Precip.
Yesterday
High -- | Low -- °F
Precip. -- in
7:11 AM 4:56 PM
Waxing Gibbous, 77% visible
Pressure 30.09 in
Visibility 10.0 miles
Clouds Overcast 3600 ft
Windchill 30 °F
Dew Point 22 °F
Humidity 62%
Rainfall 0.00 in
Snow Depth Not available.
UV 0 out of 12
Pollen .10 out of 12
Air Quality Not available.
Flu Activity Not available.
METAR KMTW 292156Z AUTO 32014KT 10SM OVC036 02/M04 A3001 RMK AO2 SLP190 T00171039 FZRANO

More Conditions Fewer Conditions

Pressure 30.09 in
Visibility 10.0 miles
Clouds Overcast 3600 ft
Windchill 30 °F
Dew Point 22 °F
Humidity 62%
Rainfall 0.00 in
Snow Depth Not available.
UV 0 out of 12
Pollen .10 out of 12
Air Quality Not available.
Flu Activity Not available.
METAR KMTW 292156Z AUTO 32014KT 10SM OVC036 02/M04 A3001 RMK AO2 SLP190 T00171039 FZRANO

More Conditions Fewer Conditions

10-Day Weather Forecast

Almanac

Astronomy

Jan. 29, 2015 Rise Set
Actual Time
Civil Twilight
Nautical Twilight
Astronomical Twilight
Moon
Length of Visible Light
Length of Day
Tomorrow will be .
, % of the Moon is Illuminated

Today's Extremes

State Highs State Lows

Community

WunderPhotos

Upload Photos

1,791,635 photos uploaded!

WunderBlogs® & News

Nearby

Air Quality

  Air Quality AQ Index Pollutant
Not available.

Snow Depth

Station Depth Elevation

Earthquake Activity

City Distance Mag. Time & Date
Minimum magnitude displayed is 2.5.

Coastal Water Temperatures

Place Temperature

Nearby Weather Stations